sensor_id;sensor_type;location;lat;lon;timestamp;pressure;altitude;pressure_sealevel;temperature;humidity
45403;BME280;47427;51.976;5.326;2022-11-15T00:01:01;100791.19;;;6.99;100.00
45403;BME280;47427;51.976;5.326;2022-11-15T00:05:01;100803.25;;;6.74;100.00
45403;BME280;47427;51.976;5.326;2022-11-15T00:08:42;100791.66;;;6.88;100.00
45403;BME280;47427;51.976;5.326;2022-11-15T00:12:22;100785.78;;;6.71;100.00
45403;BME280;47427;51.976;5.326;2022-11-15T00:16:03;100789.03;;;6.88;100.00
45403;BME280;47427;51.976;5.326;2022-11-15T00:19:44;100788.72;;;6.81;100.00
45403;BME280;47427;51.976;5.326;2022-11-15T00:23:24;100793.56;;;6.92;100.00
45403;BME280;47427;51.976;5.326;2022-11-15T00:27:05;100795.41;;;6.95;100.00
45403;BME280;47427;51.976;5.326;2022-11-15T00:30:45;100780.44;;;6.91;100.00
45403;BME280;47427;51.976;5.326;2022-11-15T00:34:25;100788.28;;;7.13;100.00
45403;BME280;47427;51.976;5.326;2022-11-15T00:38:05;100782.25;;;6.92;100.00
45403;BME280;47427;51.976;5.326;2022-11-15T00:41:45;100779.06;;;6.78;100.00
45403;BME280;47427;51.976;5.326;2022-11-15T00:45:26;100774.84;;;7.03;100.00
45403;BME280;47427;51.976;5.326;2022-11-15T00:49:27;100774.84;;;7.03;100.00
45403;BME280;47427;51.976;5.326;2022-11-15T00:53:06;100769.97;;;6.89;100.00
45403;BME280;47427;51.976;5.326;2022-11-15T00:56:46;100748.75;;;7.03;100.00
45403;BME280;47427;51.976;5.326;2022-11-15T01:00:27;100758.47;;;7.07;100.00
45403;BME280;47427;51.976;5.326;2022-11-15T01:04:07;100754.25;;;7.10;100.00
45403;BME280;47427;51.976;5.326;2022-11-15T01:07:47;100743.81;;;7.10;100.00
45403;BME280;47427;51.976;5.326;2022-11-15T01:11:30;100741.22;;;7.10;100.00
45403;BME280;47427;51.976;5.326;2022-11-15T01:15:10;100736.25;;;7.16;100.00
45403;BME280;47427;51.976;5.326;2022-11-15T01:18:51;100736.06;;;7.34;100.00
45403;BME280;47427;51.976;5.326;2022-11-15T01:22:31;100741.88;;;7.27;100.00
45403;BME280;47427;51.976;5.326;2022-11-15T01:26:14;100720.25;;;7.31;100.00
45403;BME280;47427;51.976;5.326;2022-11-15T01:30:15;100733.38;;;7.33;100.00
45403;BME280;47427;51.976;5.326;2022-11-15T01:33:55;100727.44;;;7.37;100.00
45403;BME280;47427;51.976;5.326;2022-11-15T01:37:35;100723.88;;;7.35;100.00
45403;BME280;47427;51.976;5.326;2022-11-15T01:41:31;100722.66;;;7.49;100.00
45403;BME280;47427;51.976;5.326;2022-11-15T01:45:16;100722.16;;;7.59;100.00
45403;BME280;47427;51.976;5.326;2022-11-15T01:49:00;100726.06;;;7.71;100.00
45403;BME280;47427;51.976;5.326;2022-11-15T01:52:42;100721.25;;;7.83;100.00
45403;BME280;47427;51.976;5.326;2022-11-15T01:56:27;100715.25;;;7.86;100.00
45403;BME280;47427;51.976;5.326;2022-11-15T02:00:08;100716.34;;;7.92;100.00
45403;BME280;47427;51.976;5.326;2022-11-15T02:03:58;100709.00;;;8.06;100.00
45403;BME280;47427;51.976;5.326;2022-11-15T02:07:39;100709.63;;;7.99;100.00
45403;BME280;47427;51.976;5.326;2022-11-15T02:11:20;100709.03;;;8.08;100.00
45403;BME280;47427;51.976;5.326;2022-11-15T02:15:02;100695.22;;;8.10;100.00
45403;BME280;47427;51.976;5.326;2022-11-15T02:31:32;100668.91;;;8.33;100.00
45403;BME280;47427;51.976;5.326;2022-11-15T02:43:24;100644.22;;;8.50;100.00
45403;BME280;47427;51.976;5.326;2022-11-15T02:47:27;100633.97;;;8.56;100.00
45403;BME280;47427;51.976;5.326;2022-11-15T02:51:12;100635.84;;;8.60;100.00
45403;BME280;47427;51.976;5.326;2022-11-15T02:54:56;100633.44;;;8.68;100.00
45403;BME280;47427;51.976;5.326;2022-11-15T03:03:16;100626.53;;;8.70;100.00
45403;BME280;47427;51.976;5.326;2022-11-15T03:07:22;100632.94;;;8.80;100.00
45403;BME280;47427;51.976;5.326;2022-11-15T03:11:17;100628.66;;;8.83;100.00
45403;BME280;47427;51.976;5.326;2022-11-15T03:15:12;100637.75;;;8.95;100.00
45403;BME280;47427;51.976;5.326;2022-11-15T03:19:39;100642.41;;;9.05;100.00
45403;BME280;47427;51.976;5.326;2022-11-15T03:23:21;100649.25;;;9.01;100.00
45403;BME280;47427;51.976;5.326;2022-11-15T03:27:03;100645.06;;;9.06;100.00
45403;BME280;47427;51.976;5.326;2022-11-15T03:30:47;100641.75;;;9.14;100.00
45403;BME280;47427;51.976;5.326;2022-11-15T03:34:47;100645.81;;;9.32;100.00
45403;BME280;47427;51.976;5.326;2022-11-15T03:38:30;100644.72;;;9.24;100.00
45403;BME280;47427;51.976;5.326;2022-11-15T03:42:59;100628.19;;;9.27;100.00
45403;BME280;47427;51.976;5.326;2022-11-15T03:46:49;100626.53;;;9.30;100.00
45403;BME280;47427;51.976;5.326;2022-11-15T03:50:33;100644.94;;;9.32;100.00
45403;BME280;47427;51.976;5.326;2022-11-15T03:54:14;100644.34;;;9.42;100.00
45403;BME280;47427;51.976;5.326;2022-11-15T03:57:59;100641.44;;;9.33;100.00
45403;BME280;47427;51.976;5.326;2022-11-15T04:01:40;100644.63;;;9.53;100.00
45403;BME280;47427;51.976;5.326;2022-11-15T04:05:20;100640.47;;;9.61;100.00
45403;BME280;47427;51.976;5.326;2022-11-15T04:09:01;100637.91;;;9.64;100.00
45403;BME280;47427;51.976;5.326;2022-11-15T04:12:44;100634.53;;;9.68;100.00
45403;BME280;47427;51.976;5.326;2022-11-15T04:16:26;100623.19;;;9.68;100.00
45403;BME280;47427;51.976;5.326;2022-11-15T04:20:29;100612.59;;;9.63;100.00
45403;BME280;47427;51.976;5.326;2022-11-15T04:24:29;100615.28;;;9.66;100.00
45403;BME280;47427;51.976;5.326;2022-11-15T04:28:10;100622.97;;;9.60;100.00
45403;BME280;47427;51.976;5.326;2022-11-15T04:31:50;100622.97;;;9.60;100.00
45403;BME280;47427;51.976;5.326;2022-11-15T04:35:31;100627.22;;;9.55;100.00
45403;BME280;47427;51.976;5.326;2022-11-15T04:39:11;100618.25;;;9.47;100.00
45403;BME280;47427;51.976;5.326;2022-11-15T04:42:51;100630.53;;;9.49;100.00
45403;BME280;47427;51.976;5.326;2022-11-15T04:46:31;100625.47;;;9.55;100.00
45403;BME280;47427;51.976;5.326;2022-11-15T04:50:14;100618.56;;;9.59;100.00
45403;BME280;47427;51.976;5.326;2022-11-15T04:53:54;100620.50;;;9.65;100.00
45403;BME280;47427;51.976;5.326;2022-11-15T04:57:35;100615.06;;;9.59;100.00
45403;BME280;47427;51.976;5.326;2022-11-15T05:01:16;100613.47;;;9.64;100.00
45403;BME280;47427;51.976;5.326;2022-11-15T05:04:56;100618.81;;;9.68;100.00
45403;BME280;47427;51.976;5.326;2022-11-15T05:08:36;100621.56;;;9.73;100.00
45403;BME280;47427;51.976;5.326;2022-11-15T05:12:16;100620.75;;;9.75;100.00
45403;BME280;47427;51.976;5.326;2022-11-15T05:15:56;100621.56;;;9.73;100.00
45403;BME280;47427;51.976;5.326;2022-11-15T05:19:37;100625.38;;;9.86;100.00
45403;BME280;47427;51.976;5.326;2022-11-15T05:23:18;100618.66;;;9.97;100.00
45403;BME280;47427;51.976;5.326;2022-11-15T05:26:58;100623.09;;;9.98;100.00
45403;BME280;47427;51.976;5.326;2022-11-15T05:30:38;100626.03;;;10.12;100.00
45403;BME280;47427;51.976;5.326;2022-11-15T05:34:19;100622.59;;;10.14;100.00
45403;BME280;47427;51.976;5.326;2022-11-15T05:38:01;100622.00;;;10.26;100.00
45403;BME280;47427;51.976;5.326;2022-11-15T05:41:49;100626.53;;;10.32;100.00
45403;BME280;47427;51.976;5.326;2022-11-15T05:45:32;100632.66;;;10.32;100.00
45403;BME280;47427;51.976;5.326;2022-11-15T05:49:16;100629.00;;;10.26;100.00
45403;BME280;47427;51.976;5.326;2022-11-15T05:52:58;100637.78;;;10.28;100.00
45403;BME280;47427;51.976;5.326;2022-11-15T05:56:39;100631.63;;;10.26;100.00
45403;BME280;47427;51.976;5.326;2022-11-15T06:00:19;100639.59;;;10.29;100.00
45403;BME280;47427;51.976;5.326;2022-11-15T06:03:59;100644.16;;;10.37;100.00
45403;BME280;47427;51.976;5.326;2022-11-15T06:07:39;100648.69;;;10.45;100.00
45403;BME280;47427;51.976;5.326;2022-11-15T06:11:20;100645.41;;;10.53;100.00
45403;BME280;47427;51.976;5.326;2022-11-15T06:15:00;100639.06;;;10.44;100.00
45403;BME280;47427;51.976;5.326;2022-11-15T06:18:40;100641.72;;;10.45;100.00
45403;BME280;47427;51.976;5.326;2022-11-15T06:22:20;100635.75;;;10.52;100.00
45403;BME280;47427;51.976;5.326;2022-11-15T06:26:02;100639.59;;;10.29;100.00
45403;BME280;47427;51.976;5.326;2022-11-15T06:29:43;100638.09;;;10.40;100.00
45403;BME280;47427;51.976;5.326;2022-11-15T06:33:23;100631.03;;;10.36;100.00
45403;BME280;47427;51.976;5.326;2022-11-15T06:37:03;100641.50;;;10.36;100.00
45403;BME280;47427;51.976;5.326;2022-11-15T06:40:46;100651.03;;;10.32;100.00
45403;BME280;47427;51.976;5.326;2022-11-15T06:44:27;100657.16;;;10.33;100.00
45403;BME280;47427;51.976;5.326;2022-11-15T06:48:07;100668.03;;;10.48;100.00
45403;BME280;47427;51.976;5.326;2022-11-15T06:51:47;100680.88;;;10.37;100.00
45403;BME280;47427;51.976;5.326;2022-11-15T06:55:27;100663.31;;;10.35;100.00
45403;BME280;47427;51.976;5.326;2022-11-15T06:59:07;100673.06;;;10.40;100.00
45403;BME280;47427;51.976;5.326;2022-11-15T07:02:48;100674.97;;;10.46;100.00
45403;BME280;47427;51.976;5.326;2022-11-15T07:06:28;100686.41;;;10.50;100.00
45403;BME280;47427;51.976;5.326;2022-11-15T07:10:09;100682.63;;;10.37;100.00
45403;BME280;47427;51.976;5.326;2022-11-15T07:13:49;100678.72;;;10.56;100.00
45403;BME280;47427;51.976;5.326;2022-11-15T07:17:29;100689.34;;;10.62;100.00
45403;BME280;47427;51.976;5.326;2022-11-15T07:21:10;100680.78;;;10.71;100.00
45403;BME280;47427;51.976;5.326;2022-11-15T07:24:51;100676.16;;;10.60;100.00
45403;BME280;47427;51.976;5.326;2022-11-15T07:28:31;100687.00;;;10.74;100.00
45403;BME280;47427;51.976;5.326;2022-11-15T07:32:11;100681.75;;;10.74;100.00
45403;BME280;47427;51.976;5.326;2022-11-15T07:35:52;100689.78;;;10.82;100.00
45403;BME280;47427;51.976;5.326;2022-11-15T07:39:32;100695.81;;;10.78;100.00
45403;BME280;47427;51.976;5.326;2022-11-15T07:43:12;100683.63;;;10.80;100.00
45403;BME280;47427;51.976;5.326;2022-11-15T07:46:52;100677.75;;;10.92;100.00
45403;BME280;47427;51.976;5.326;2022-11-15T07:50:32;100676.25;;;10.63;100.00
45403;BME280;47427;51.976;5.326;2022-11-15T07:54:13;100671.66;;;10.55;100.00
45403;BME280;47427;51.976;5.326;2022-11-15T07:57:59;100667.94;;;10.45;100.00
45403;BME280;47427;51.976;5.326;2022-11-15T08:01:39;100678.78;;;10.60;100.00
45403;BME280;47427;51.976;5.326;2022-11-15T08:05:20;100671.47;;;10.85;100.00
45403;BME280;47427;51.976;5.326;2022-11-15T08:09:00;100674.53;;;11.05;100.00
45403;BME280;47427;51.976;5.326;2022-11-15T08:12:40;100671.97;;;11.06;100.00
45403;BME280;47427;51.976;5.326;2022-11-15T08:16:20;100672.69;;;10.99;100.00
45403;BME280;47427;51.976;5.326;2022-11-15T08:20:01;100677.22;;;11.08;100.00
45403;BME280;47427;51.976;5.326;2022-11-15T08:23:41;100670.06;;;10.99;100.00
45403;BME280;47427;51.976;5.326;2022-11-15T08:27:21;100662.19;;;10.99;100.00
45403;BME280;47427;51.976;5.326;2022-11-15T08:31:03;100668.56;;;11.12;100.00
45403;BME280;47427;51.976;5.326;2022-11-15T08:34:43;100667.09;;;11.25;100.00
45403;BME280;47427;51.976;5.326;2022-11-15T08:38:24;100665.13;;;11.15;100.00
45403;BME280;47427;51.976;5.326;2022-11-15T08:42:04;100656.38;;;11.14;100.00
45403;BME280;47427;51.976;5.326;2022-11-15T08:45:45;100651.44;;;11.31;100.00
45403;BME280;47427;51.976;5.326;2022-11-15T08:49:25;100649.19;;;11.51;100.00
45403;BME280;47427;51.976;5.326;2022-11-15T08:53:45;100649.59;;;11.71;100.00
45403;BME280;47427;51.976;5.326;2022-11-15T08:57:44;100639.81;;;12.11;100.00
45403;BME280;47427;51.976;5.326;2022-11-15T09:01:24;100637.50;;;12.32;100.00
45403;BME280;47427;51.976;5.326;2022-11-15T09:05:05;100642.63;;;12.25;100.00
45403;BME280;47427;51.976;5.326;2022-11-15T09:08:45;100652.94;;;12.12;100.00
45403;BME280;47427;51.976;5.326;2022-11-15T09:12:26;100648.97;;;11.86;100.00
45403;BME280;47427;51.976;5.326;2022-11-15T09:16:26;100651.84;;;11.98;100.00
45403;BME280;47427;51.976;5.326;2022-11-15T09:20:08;100647.31;;;11.89;99.93
45403;BME280;47427;51.976;5.326;2022-11-15T09:23:51;100627.06;;;12.37;97.39
45403;BME280;47427;51.976;5.326;2022-11-15T09:27:32;100624.28;;;12.89;94.46
45403;BME280;47427;51.976;5.326;2022-11-15T09:31:12;100632.09;;;12.83;93.26
45403;BME280;47427;51.976;5.326;2022-11-15T09:34:52;100619.78;;;12.80;92.34
45403;BME280;47427;51.976;5.326;2022-11-15T09:38:33;100617.84;;;14.31;85.57
45403;BME280;47427;51.976;5.326;2022-11-15T09:42:36;100618.50;;;15.74;76.64
45403;BME280;47427;51.976;5.326;2022-11-15T09:50:50;100609.56;;;17.00;72.47
45403;BME280;47427;51.976;5.326;2022-11-15T09:58:15;100625.53;;;15.60;71.67
45403;BME280;47427;51.976;5.326;2022-11-15T10:05:46;100618.34;;;15.24;73.78
45403;BME280;47427;51.976;5.326;2022-11-15T10:09:17;100621.09;;;15.50;73.25
45403;BME280;47427;51.976;5.326;2022-11-15T10:12:47;100606.16;;;16.30;70.58
45403;BME280;47427;51.976;5.326;2022-11-15T10:20:27;100597.38;;;16.23;69.70
45403;BME280;47427;51.976;5.326;2022-11-15T10:23:50;100575.06;;;17.12;65.43
45403;BME280;47427;51.976;5.326;2022-11-15T10:27:17;100568.25;;;16.10;67.93
45403;BME280;47427;51.976;5.326;2022-11-15T10:30:54;100578.66;;;15.02;71.29
45403;BME280;47427;51.976;5.326;2022-11-15T10:34:26;100571.50;;;14.77;71.69
45403;BME280;47427;51.976;5.326;2022-11-15T10:37:48;100570.38;;;14.36;73.10
45403;BME280;47427;51.976;5.326;2022-11-15T10:41:11;100568.28;;;13.92;74.75
45403;BME280;47427;51.976;5.326;2022-11-15T10:44:42;100562.09;;;13.85;74.52
45403;BME280;47427;51.976;5.326;2022-11-15T10:58:42;100538.84;;;13.40;76.44
45403;BME280;47427;51.976;5.326;2022-11-15T11:02:35;100535.31;;;13.38;76.39
45403;BME280;47427;51.976;5.326;2022-11-15T11:06:11;100534.00;;;12.99;77.60
45403;BME280;47427;51.976;5.326;2022-11-15T11:09:36;100525.56;;;13.28;77.00
45403;BME280;47427;51.976;5.326;2022-11-15T11:13:46;100529.31;;;13.53;74.21
45403;BME280;47427;51.976;5.326;2022-11-15T11:17:18;100524.88;;;13.50;75.21
45403;BME280;47427;51.976;5.326;2022-11-15T11:21:01;100530.88;;;13.34;76.06
45403;BME280;47427;51.976;5.326;2022-11-15T11:24:57;100519.41;;;13.29;75.38
45403;BME280;47427;51.976;5.326;2022-11-15T11:32:40;100511.38;;;13.18;74.79
45403;BME280;47427;51.976;5.326;2022-11-15T11:44:24;100492.72;;;13.97;71.84
45403;BME280;47427;51.976;5.326;2022-11-15T11:48:14;100490.94;;;13.95;71.46
45403;BME280;47427;51.976;5.326;2022-11-15T11:52:07;100477.88;;;14.15;69.13
45403;BME280;47427;51.976;5.326;2022-11-15T11:55:51;100463.31;;;15.12;68.04
45403;BME280;47427;51.976;5.326;2022-11-15T11:59:39;100463.06;;;16.62;61.58
45403;BME280;47427;51.976;5.326;2022-11-15T12:03:18;100441.22;;;17.61;59.33
45403;BME280;47427;51.976;5.326;2022-11-15T12:07:13;100454.91;;;18.09;57.10
45403;BME280;47427;51.976;5.326;2022-11-15T12:10:37;100447.66;;;17.29;56.53
45403;BME280;47427;51.976;5.326;2022-11-15T12:14:05;100451.22;;;17.28;56.53
45403;BME280;47427;51.976;5.326;2022-11-15T12:17:32;100429.53;;;18.56;54.05
45403;BME280;47427;51.976;5.326;2022-11-15T12:21:13;100424.59;;;18.28;53.03
45403;BME280;47427;51.976;5.326;2022-11-15T12:24:58;100417.13;;;19.20;52.10
45403;BME280;47427;51.976;5.326;2022-11-15T12:28:38;100417.44;;;19.54;48.56
45403;BME280;47427;51.976;5.326;2022-11-15T12:32:03;100400.69;;;18.93;50.38
45403;BME280;47427;51.976;5.326;2022-11-15T12:35:39;100391.06;;;18.86;51.10
45403;BME280;47427;51.976;5.326;2022-11-15T12:39:10;100389.69;;;18.56;50.55
45403;BME280;47427;51.976;5.326;2022-11-15T12:42:56;100387.22;;;18.42;51.04
45403;BME280;47427;51.976;5.326;2022-11-15T12:49:51;100366.44;;;18.05;52.73
45403;BME280;47427;51.976;5.326;2022-11-15T12:53:33;100361.75;;;18.29;53.01
45403;BME280;47427;51.976;5.326;2022-11-15T13:04:22;100342.31;;;17.48;54.50
45403;BME280;47427;51.976;5.326;2022-11-15T13:11:45;100328.06;;;16.50;55.84
45403;BME280;47427;51.976;5.326;2022-11-15T13:18:40;100325.50;;;16.36;56.53
45403;BME280;47427;51.976;5.326;2022-11-15T13:22:09;100325.69;;;16.01;57.65
45403;BME280;47427;51.976;5.326;2022-11-15T13:26:13;100323.22;;;15.39;59.42
45403;BME280;47427;51.976;5.326;2022-11-15T13:29:37;100313.56;;;14.97;61.72
45403;BME280;47427;51.976;5.326;2022-11-15T13:36:46;100299.41;;;14.35;64.03
45403;BME280;47427;51.976;5.326;2022-11-15T13:40:28;100301.09;;;14.05;65.39
45403;BME280;47427;51.976;5.326;2022-11-15T13:43:53;100296.56;;;13.74;66.77
45403;BME280;47427;51.976;5.326;2022-11-15T13:47:18;100283.47;;;14.00;66.15
45403;BME280;47427;51.976;5.326;2022-11-15T13:50:40;100286.81;;;13.50;68.12
45403;BME280;47427;51.976;5.326;2022-11-15T13:54:20;100280.63;;;13.43;68.81
45403;BME280;47427;51.976;5.326;2022-11-15T13:57:58;100265.72;;;13.48;69.04
45403;BME280;47427;51.976;5.326;2022-11-15T14:01:21;100262.19;;;13.49;68.81
45403;BME280;47427;51.976;5.326;2022-11-15T14:04:53;100251.66;;;13.48;69.02
45403;BME280;47427;51.976;5.326;2022-11-15T14:08:24;100248.91;;;13.29;69.61
45403;BME280;47427;51.976;5.326;2022-11-15T14:11:54;100249.75;;;13.25;70.30
45403;BME280;47427;51.976;5.326;2022-11-15T14:15:29;100246.09;;;13.06;70.88
45403;BME280;47427;51.976;5.326;2022-11-15T14:18:52;100219.69;;;12.92;71.15
45403;BME280;47427;51.976;5.326;2022-11-15T14:25:55;100218.84;;;12.95;71.57
45403;BME280;47427;51.976;5.326;2022-11-15T14:29:31;100224.06;;;12.87;72.14
45403;BME280;47427;51.976;5.326;2022-11-15T14:32:52;100206.34;;;12.68;72.56
45403;BME280;47427;51.976;5.326;2022-11-15T14:36:18;100195.72;;;12.55;72.58
45403;BME280;47427;51.976;5.326;2022-11-15T14:39:40;100204.56;;;12.59;72.22
45403;BME280;47427;51.976;5.326;2022-11-15T14:43:01;100193.16;;;12.63;72.00
45403;BME280;47427;51.976;5.326;2022-11-15T14:46:23;100196.78;;;12.77;71.42
45403;BME280;47427;51.976;5.326;2022-11-15T14:49:45;100182.72;;;12.72;71.36
45403;BME280;47427;51.976;5.326;2022-11-15T14:53:10;100184.31;;;12.49;72.02
45403;BME280;47427;51.976;5.326;2022-11-15T14:56:32;100167.66;;;12.54;72.28
45403;BME280;47427;51.976;5.326;2022-11-15T14:59:54;100165.06;;;12.57;72.50
45403;BME280;47427;51.976;5.326;2022-11-15T15:03:15;100160.63;;;12.49;73.07
45403;BME280;47427;51.976;5.326;2022-11-15T15:06:37;100150.03;;;12.43;73.22
45403;BME280;47427;51.976;5.326;2022-11-15T15:10:00;100156.09;;;12.32;73.38
45403;BME280;47427;51.976;5.326;2022-11-15T15:13:24;100141.16;;;12.27;73.32
45403;BME280;47427;51.976;5.326;2022-11-15T15:16:45;100135.00;;;12.26;73.05
45403;BME280;47427;51.976;5.326;2022-11-15T15:20:09;100127.13;;;12.29;73.50
45403;BME280;47427;51.976;5.326;2022-11-15T15:23:33;100123.47;;;12.09;73.66
45403;BME280;47427;51.976;5.326;2022-11-15T15:26:56;100119.94;;;12.04;73.73
45403;BME280;47427;51.976;5.326;2022-11-15T15:30:19;100119.22;;;12.23;73.75
45403;BME280;47427;51.976;5.326;2022-11-15T15:33:41;100095.38;;;12.05;73.57
45403;BME280;47427;51.976;5.326;2022-11-15T15:37:19;100107.72;;;12.10;72.88
45403;BME280;47427;51.976;5.326;2022-11-15T15:40:45;100096.28;;;12.05;72.25
45403;BME280;47427;51.976;5.326;2022-11-15T15:44:06;100091.03;;;12.10;72.04
45403;BME280;47427;51.976;5.326;2022-11-15T15:47:28;100087.50;;;12.03;72.04
45403;BME280;47427;51.976;5.326;2022-11-15T15:50:50;100082.25;;;12.05;71.79
45403;BME280;47427;51.976;5.326;2022-11-15T15:54:11;100082.28;;;12.08;71.61
45403;BME280;47427;51.976;5.326;2022-11-15T15:57:33;100078.78;;;12.12;71.26
45403;BME280;47427;51.976;5.326;2022-11-15T16:00:54;100073.50;;;12.06;71.38
45403;BME280;47427;51.976;5.326;2022-11-15T16:04:15;100084.84;;;12.02;71.07
45403;BME280;47427;51.976;5.326;2022-11-15T16:07:38;100076.97;;;12.00;71.60
45403;BME280;47427;51.976;5.326;2022-11-15T16:11:00;100063.81;;;12.00;71.77
45403;BME280;47427;51.976;5.326;2022-11-15T16:14:24;100069.06;;;12.02;71.24
45403;BME280;47427;51.976;5.326;2022-11-15T16:18:14;100082.19;;;11.99;71.33
45403;BME280;47427;51.976;5.326;2022-11-15T16:21:36;100064.69;;;11.98;71.08
45403;BME280;47427;51.976;5.326;2022-11-15T16:24:57;100070.69;;;11.87;71.48
45403;BME280;47427;51.976;5.326;2022-11-15T16:28:28;100069.88;;;11.91;71.48
45403;BME280;47427;51.976;5.326;2022-11-15T16:31:50;100076.00;;;11.90;71.93
45403;BME280;47427;51.976;5.326;2022-11-15T16:35:13;100076.84;;;11.89;71.98
45403;BME280;47427;51.976;5.326;2022-11-15T16:38:35;100069.75;;;11.78;72.26
45403;BME280;47427;51.976;5.326;2022-11-15T16:41:58;100073.31;;;11.86;72.34
45403;BME280;47427;51.976;5.326;2022-11-15T16:45:20;100068.13;;;11.90;72.88
45403;BME280;47427;51.976;5.326;2022-11-15T16:48:41;100076.69;;;11.71;74.89
45403;BME280;47427;51.976;5.326;2022-11-15T16:52:03;100068.84;;;11.76;75.61
45403;BME280;47427;51.976;5.326;2022-11-15T16:55:28;100081.16;;;11.81;75.74
45403;BME280;47427;51.976;5.326;2022-11-15T16:58:50;100077.66;;;11.81;76.64
45403;BME280;47427;51.976;5.326;2022-11-15T17:02:14;100083.47;;;11.47;78.84
45403;BME280;47427;51.976;5.326;2022-11-15T17:05:35;100072.66;;;11.21;81.02
45403;BME280;47427;51.976;5.326;2022-11-15T17:09:22;100077.06;;;11.24;82.43
45403;BME280;47427;51.976;5.326;2022-11-15T17:12:44;100076.94;;;11.12;83.90
45403;BME280;47427;51.976;5.326;2022-11-15T17:16:15;100075.09;;;11.03;85.76
45403;BME280;47427;51.976;5.326;2022-11-15T17:19:37;100057.41;;;10.87;87.17
45403;BME280;47427;51.976;5.326;2022-11-15T17:22:58;100062.44;;;10.70;88.95
45403;BME280;47427;51.976;5.326;2022-11-15T17:26:20;100061.47;;;10.61;90.61
45403;BME280;47427;51.976;5.326;2022-11-15T17:29:42;100053.44;;;10.52;92.35
45403;BME280;47427;51.976;5.326;2022-11-15T17:33:03;100058.69;;;10.52;93.27
45403;BME280;47427;51.976;5.326;2022-11-15T17:36:25;100056.03;;;10.49;94.48
45403;BME280;47427;51.976;5.326;2022-11-15T17:39:47;100054.22;;;10.45;95.65
45403;BME280;47427;51.976;5.326;2022-11-15T17:43:08;100054.28;;;10.48;96.54
45403;BME280;47427;51.976;5.326;2022-11-15T17:46:30;100041.16;;;10.47;97.30
45403;BME280;47427;51.976;5.326;2022-11-15T17:49:52;100044.41;;;10.30;99.88
45403;BME280;47427;51.976;5.326;2022-11-15T17:53:14;100037.31;;;10.25;100.00
45403;BME280;47427;51.976;5.326;2022-11-15T17:56:38;100039.16;;;10.30;100.00
45403;BME280;47427;51.976;5.326;2022-11-15T18:00:00;100044.44;;;10.32;100.00
45403;BME280;47427;51.976;5.326;2022-11-15T18:03:25;100038.19;;;10.25;100.00
45403;BME280;47427;51.976;5.326;2022-11-15T18:06:46;100041.84;;;10.33;100.00
45403;BME280;47427;51.976;5.326;2022-11-15T18:10:08;100026.03;;;10.29;100.00
45403;BME280;47427;51.976;5.326;2022-11-15T18:13:30;100038.34;;;10.34;100.00
45403;BME280;47427;51.976;5.326;2022-11-15T18:16:51;100033.03;;;10.28;100.00
45403;BME280;47427;51.976;5.326;2022-11-15T18:20:15;100030.63;;;10.44;100.00
45403;BME280;47427;51.976;5.326;2022-11-15T18:23:37;100024.44;;;10.40;100.00
45403;BME280;47427;51.976;5.326;2022-11-15T18:27:00;100013.81;;;10.29;100.00
45403;BME280;47427;51.976;5.326;2022-11-15T18:30:22;100012.16;;;10.36;100.00
45403;BME280;47427;51.976;5.326;2022-11-15T18:33:44;100011.22;;;10.32;100.00
45403;BME280;47427;51.976;5.326;2022-11-15T18:37:06;100008.69;;;10.40;100.00
45403;BME280;47427;51.976;5.326;2022-11-15T18:40:27;100013.94;;;10.40;100.00
45403;BME280;47427;51.976;5.326;2022-11-15T18:43:50;100002.50;;;10.35;100.00
45403;BME280;47427;51.976;5.326;2022-11-15T18:47:11;99999.91;;;10.35;100.00
45403;BME280;47427;51.976;5.326;2022-11-15T18:50:33;100000.81;;;10.37;100.00
45403;BME280;47427;51.976;5.326;2022-11-15T18:54:00;99992.06;;;10.36;100.00
45403;BME280;47427;51.976;5.326;2022-11-15T18:57:22;99994.81;;;10.47;100.00
45403;BME280;47427;51.976;5.326;2022-11-15T19:00:43;99987.81;;;10.46;100.00
45403;BME280;47427;51.976;5.326;2022-11-15T19:04:11;99987.81;;;10.46;100.00
45403;BME280;47427;51.976;5.326;2022-11-15T19:07:33;99983.38;;;10.42;100.00
45403;BME280;47427;51.976;5.326;2022-11-15T19:10:55;99985.13;;;10.43;100.00
45403;BME280;47427;51.976;5.326;2022-11-15T19:14:17;99994.84;;;10.50;100.00
45403;BME280;47427;51.976;5.326;2022-11-15T19:17:39;99988.66;;;10.44;100.00
45403;BME280;47427;51.976;5.326;2022-11-15T19:21:09;99983.47;;;10.50;100.00
45403;BME280;47427;51.976;5.326;2022-11-15T19:24:39;99990.50;;;10.51;100.00
45403;BME280;47427;51.976;5.326;2022-11-15T19:28:00;99980.94;;;10.57;100.00
45403;BME280;47427;51.976;5.326;2022-11-15T19:31:23;99986.22;;;10.60;100.00
45403;BME280;47427;51.976;5.326;2022-11-15T19:34:45;99990.59;;;10.58;100.00
45403;BME280;47427;51.976;5.326;2022-11-15T19:38:06;99982.78;;;10.65;100.00
45403;BME280;47427;51.976;5.326;2022-11-15T19:41:28;99986.22;;;10.60;100.00
45403;BME280;47427;51.976;5.326;2022-11-15T19:44:49;99978.44;;;10.67;100.00
45403;BME280;47427;51.976;5.326;2022-11-15T19:48:10;99981.13;;;10.73;100.00
45403;BME280;47427;51.976;5.326;2022-11-15T19:51:32;99968.84;;;10.67;100.00
45403;BME280;47427;51.976;5.326;2022-11-15T19:54:54;99972.41;;;10.74;100.00
45403;BME280;47427;51.976;5.326;2022-11-15T19:58:15;99956.78;;;10.84;100.00
45403;BME280;47427;51.976;5.326;2022-11-15T20:01:37;99957.63;;;10.83;100.00
45403;BME280;47427;51.976;5.326;2022-11-15T20:04:59;99957.72;;;10.90;100.00
45403;BME280;47427;51.976;5.326;2022-11-15T20:08:20;99952.28;;;10.71;100.00
45403;BME280;47427;51.976;5.326;2022-11-15T20:11:42;99958.38;;;10.70;100.00